sensor_id;sensor_type;location;lat;lon;timestamp;temperature;humidity
26224;DHT22;14820;48.682;8.890;2023-02-26T00:00:44;1.10;99.90
26224;DHT22;14820;48.682;8.890;2023-02-26T00:03:09;1.00;99.90
26224;DHT22;14820;48.682;8.890;2023-02-26T00:05:35;1.10;99.90
26224;DHT22;14820;48.682;8.890;2023-02-26T00:08:00;1.10;99.90
26224;DHT22;14820;48.682;8.890;2023-02-26T00:10:30;1.00;99.90
26224;DHT22;14820;48.682;8.890;2023-02-26T00:12:56;1.00;99.90
26224;DHT22;14820;48.682;8.890;2023-02-26T00:15:22;1.00;99.90
26224;DHT22;14820;48.682;8.890;2023-02-26T00:17:54;1.00;99.90
26224;DHT22;14820;48.682;8.890;2023-02-26T00:20:21;1.00;99.90
26224;DHT22;14820;48.682;8.890;2023-02-26T00:22:47;1.00;99.90
26224;DHT22;14820;48.682;8.890;2023-02-26T00:25:13;1.10;99.90
26224;DHT22;14820;48.682;8.890;2023-02-26T00:27:39;1.00;99.90
26224;DHT22;14820;48.682;8.890;2023-02-26T00:30:07;0.90;99.90
26224;DHT22;14820;48.682;8.890;2023-02-26T00:32:34;0.90;99.90
26224;DHT22;14820;48.682;8.890;2023-02-26T00:35:00;0.90;99.90
26224;DHT22;14820;48.682;8.890;2023-02-26T00:40:14;0.80;99.90
26224;DHT22;14820;48.682;8.890;2023-02-26T00:42:42;0.80;99.90
26224;DHT22;14820;48.682;8.890;2023-02-26T00:45:09;0.80;99.90
26224;DHT22;14820;48.682;8.890;2023-02-26T00:47:54;0.70;99.90
26224;DHT22;14820;48.682;8.890;2023-02-26T00:50:22;0.70;99.90
26224;DHT22;14820;48.682;8.890;2023-02-26T00:53:17;0.70;99.90
26224;DHT22;14820;48.682;8.890;2023-02-26T00:55:45;0.60;99.90
26224;DHT22;14820;48.682;8.890;2023-02-26T00:58:10;0.60;99.90
26224;DHT22;14820;48.682;8.890;2023-02-26T01:00:36;0.70;99.90
26224;DHT22;14820;48.682;8.890;2023-02-26T01:03:02;0.70;99.90
26224;DHT22;14820;48.682;8.890;2023-02-26T01:05:28;0.70;99.90
26224;DHT22;14820;48.682;8.890;2023-02-26T01:10:39;0.60;99.90
26224;DHT22;14820;48.682;8.890;2023-02-26T01:13:05;0.70;99.90
26224;DHT22;14820;48.682;8.890;2023-02-26T01:15:31;0.70;99.90
26224;DHT22;14820;48.682;8.890;2023-02-26T01:20:25;0.50;99.90
26224;DHT22;14820;48.682;8.890;2023-02-26T01:22:56;0.50;99.90
26224;DHT22;14820;48.682;8.890;2023-02-26T01:25:34;0.50;99.90
26224;DHT22;14820;48.682;8.890;2023-02-26T01:28:01;0.50;99.90
26224;DHT22;14820;48.682;8.890;2023-02-26T01:30:27;0.50;99.90
26224;DHT22;14820;48.682;8.890;2023-02-26T01:49:16;0.30;99.90
26224;DHT22;14820;48.682;8.890;2023-02-26T01:51:55;0.30;99.90
26224;DHT22;14820;48.682;8.890;2023-02-26T01:57:08;0.30;99.90
26224;DHT22;14820;48.682;8.890;2023-02-26T01:59:41;0.30;99.90
26224;DHT22;14820;48.682;8.890;2023-02-26T02:02:10;0.20;99.90
26224;DHT22;14820;48.682;8.890;2023-02-26T02:04:37;0.20;99.90
26224;DHT22;14820;48.682;8.890;2023-02-26T02:07:05;0.20;99.90
26224;DHT22;14820;48.682;8.890;2023-02-26T02:09:31;0.20;99.90
26224;DHT22;14820;48.682;8.890;2023-02-26T02:12:07;0.20;99.90
26224;DHT22;14820;48.682;8.890;2023-02-26T02:17:42;0.20;99.90
26224;DHT22;14820;48.682;8.890;2023-02-26T02:31:39;0.10;99.90
26224;DHT22;14820;48.682;8.890;2023-02-26T02:37:05;0.10;99.90
26224;DHT22;14820;48.682;8.890;2023-02-26T02:39:39;0.10;99.90
26224;DHT22;14820;48.682;8.890;2023-02-26T02:42:07;0.10;99.90
26224;DHT22;14820;48.682;8.890;2023-02-26T02:44:39;0.00;99.90
26224;DHT22;14820;48.682;8.890;2023-02-26T02:47:09;0.10;99.90
26224;DHT22;14820;48.682;8.890;2023-02-26T02:49:43;0.10;99.90
26224;DHT22;14820;48.682;8.890;2023-02-26T02:55:06;0.00;99.90
26224;DHT22;14820;48.682;8.890;2023-02-26T02:57:46;0.00;99.90
26224;DHT22;14820;48.682;8.890;2023-02-26T03:00:33;-0.10;99.90
26224;DHT22;14820;48.682;8.890;2023-02-26T03:03:15;-0.10;99.90
26224;DHT22;14820;48.682;8.890;2023-02-26T03:05:42;-0.20;99.90
26224;DHT22;14820;48.682;8.890;2023-02-26T03:08:11;-0.20;99.90
26224;DHT22;14820;48.682;8.890;2023-02-26T03:10:38;-0.20;99.90
26224;DHT22;14820;48.682;8.890;2023-02-26T03:13:04;-0.20;99.90
26224;DHT22;14820;48.682;8.890;2023-02-26T03:15:38;-0.30;99.90
26224;DHT22;14820;48.682;8.890;2023-02-26T03:23:59;-0.20;99.90
26224;DHT22;14820;48.682;8.890;2023-02-26T03:26:29;-0.30;99.90
26224;DHT22;14820;48.682;8.890;2023-02-26T03:29:07;-0.30;99.90
26224;DHT22;14820;48.682;8.890;2023-02-26T03:31:39;-0.40;99.90
26224;DHT22;14820;48.682;8.890;2023-02-26T03:34:14;-0.40;99.90
26224;DHT22;14820;48.682;8.890;2023-02-26T03:36:59;-0.40;99.90
26224;DHT22;14820;48.682;8.890;2023-02-26T03:39:41;-0.40;99.90
26224;DHT22;14820;48.682;8.890;2023-02-26T03:42:36;-0.40;99.90
26224;DHT22;14820;48.682;8.890;2023-02-26T03:45:08;-0.50;99.90
26224;DHT22;14820;48.682;8.890;2023-02-26T03:47:35;-0.40;99.90
26224;DHT22;14820;48.682;8.890;2023-02-26T03:50:23;-0.40;99.90
26224;DHT22;14820;48.682;8.890;2023-02-26T03:52:51;-0.40;99.90
26224;DHT22;14820;48.682;8.890;2023-02-26T03:55:33;-0.50;99.90
26224;DHT22;14820;48.682;8.890;2023-02-26T03:58:01;-0.50;99.90
26224;DHT22;14820;48.682;8.890;2023-02-26T04:00:27;-0.50;99.90
26224;DHT22;14820;48.682;8.890;2023-02-26T04:03:03;-0.50;99.90
26224;DHT22;14820;48.682;8.890;2023-02-26T04:05:40;-0.60;99.90
26224;DHT22;14820;48.682;8.890;2023-02-26T04:08:07;-0.60;99.90
26224;DHT22;14820;48.682;8.890;2023-02-26T04:10:39;-0.60;99.90
26224;DHT22;14820;48.682;8.890;2023-02-26T04:13:06;-0.70;99.90
26224;DHT22;14820;48.682;8.890;2023-02-26T04:15:32;-0.80;99.90
26224;DHT22;14820;48.682;8.890;2023-02-26T04:17:58;-0.80;99.90
26224;DHT22;14820;48.682;8.890;2023-02-26T04:20:23;-0.80;99.90
26224;DHT22;14820;48.682;8.890;2023-02-26T04:22:49;-0.90;99.90
26224;DHT22;14820;48.682;8.890;2023-02-26T04:25:15;-1.00;99.90
26224;DHT22;14820;48.682;8.890;2023-02-26T04:27:40;-0.90;99.90
26224;DHT22;14820;48.682;8.890;2023-02-26T04:30:06;-0.90;99.90
26224;DHT22;14820;48.682;8.890;2023-02-26T04:32:32;-0.80;99.90
26224;DHT22;14820;48.682;8.890;2023-02-26T04:34:58;-0.90;99.90
26224;DHT22;14820;48.682;8.890;2023-02-26T04:37:23;-0.90;99.90
26224;DHT22;14820;48.682;8.890;2023-02-26T04:39:49;-0.90;99.90
26224;DHT22;14820;48.682;8.890;2023-02-26T04:42:14;-0.90;99.90
26224;DHT22;14820;48.682;8.890;2023-02-26T04:44:40;-0.90;99.90
26224;DHT22;14820;48.682;8.890;2023-02-26T04:47:06;-1.00;99.90
26224;DHT22;14820;48.682;8.890;2023-02-26T04:49:31;-1.00;99.90
26224;DHT22;14820;48.682;8.890;2023-02-26T04:51:57;-1.10;99.90
26224;DHT22;14820;48.682;8.890;2023-02-26T04:54:23;-1.00;99.90
26224;DHT22;14820;48.682;8.890;2023-02-26T04:56:49;-1.00;99.90
26224;DHT22;14820;48.682;8.890;2023-02-26T04:59:14;-1.00;99.90
26224;DHT22;14820;48.682;8.890;2023-02-26T05:01:40;-1.00;99.90
26224;DHT22;14820;48.682;8.890;2023-02-26T05:04:05;-1.00;99.90
26224;DHT22;14820;48.682;8.890;2023-02-26T05:06:31;-1.00;99.90
26224;DHT22;14820;48.682;8.890;2023-02-26T05:08:57;-1.00;99.90
26224;DHT22;14820;48.682;8.890;2023-02-26T05:11:22;-1.10;99.90
26224;DHT22;14820;48.682;8.890;2023-02-26T05:13:48;-1.00;99.90
26224;DHT22;14820;48.682;8.890;2023-02-26T05:16:14;-1.10;99.90
26224;DHT22;14820;48.682;8.890;2023-02-26T05:18:39;-1.10;99.90
26224;DHT22;14820;48.682;8.890;2023-02-26T05:21:05;-1.10;99.90
26224;DHT22;14820;48.682;8.890;2023-02-26T05:23:31;-1.10;99.90
26224;DHT22;14820;48.682;8.890;2023-02-26T05:25:57;-1.10;99.90
26224;DHT22;14820;48.682;8.890;2023-02-26T05:28:24;-1.20;99.90
26224;DHT22;14820;48.682;8.890;2023-02-26T05:30:50;-1.20;99.90
26224;DHT22;14820;48.682;8.890;2023-02-26T05:33:16;-1.20;99.90
26224;DHT22;14820;48.682;8.890;2023-02-26T05:35:41;-1.20;99.90
26224;DHT22;14820;48.682;8.890;2023-02-26T05:38:07;-1.20;99.90
26224;DHT22;14820;48.682;8.890;2023-02-26T05:40:33;-1.20;99.90
26224;DHT22;14820;48.682;8.890;2023-02-26T05:42:58;-1.20;99.90
26224;DHT22;14820;48.682;8.890;2023-02-26T05:45:24;-1.20;99.90
26224;DHT22;14820;48.682;8.890;2023-02-26T05:47:49;-1.30;99.90
26224;DHT22;14820;48.682;8.890;2023-02-26T05:50:15;-1.30;99.90
26224;DHT22;14820;48.682;8.890;2023-02-26T05:52:41;-1.30;99.90
26224;DHT22;14820;48.682;8.890;2023-02-26T05:55:07;-1.40;99.90
26224;DHT22;14820;48.682;8.890;2023-02-26T05:57:33;-1.40;99.90
26224;DHT22;14820;48.682;8.890;2023-02-26T05:59:59;-1.40;99.90
26224;DHT22;14820;48.682;8.890;2023-02-26T06:02:24;-1.40;99.90
26224;DHT22;14820;48.682;8.890;2023-02-26T06:04:50;-1.40;99.90
26224;DHT22;14820;48.682;8.890;2023-02-26T06:07:16;-1.40;99.90
26224;DHT22;14820;48.682;8.890;2023-02-26T06:09:41;-1.40;99.90
26224;DHT22;14820;48.682;8.890;2023-02-26T06:12:07;-1.40;99.90
26224;DHT22;14820;48.682;8.890;2023-02-26T06:14:33;-1.40;99.90
26224;DHT22;14820;48.682;8.890;2023-02-26T06:17:01;-1.50;99.90
26224;DHT22;14820;48.682;8.890;2023-02-26T06:19:26;-1.60;99.90
26224;DHT22;14820;48.682;8.890;2023-02-26T06:21:52;-1.50;99.90
26224;DHT22;14820;48.682;8.890;2023-02-26T06:24:18;-1.60;99.90
26224;DHT22;14820;48.682;8.890;2023-02-26T06:26:43;-1.50;99.90
26224;DHT22;14820;48.682;8.890;2023-02-26T06:29:09;-1.50;99.90
26224;DHT22;14820;48.682;8.890;2023-02-26T06:31:35;-1.50;99.90
26224;DHT22;14820;48.682;8.890;2023-02-26T06:34:01;-1.50;99.90
26224;DHT22;14820;48.682;8.890;2023-02-26T06:36:26;-1.50;99.90
26224;DHT22;14820;48.682;8.890;2023-02-26T06:38:52;-1.60;99.90
26224;DHT22;14820;48.682;8.890;2023-02-26T06:41:18;-1.60;99.90
26224;DHT22;14820;48.682;8.890;2023-02-26T06:43:43;-1.60;99.90
26224;DHT22;14820;48.682;8.890;2023-02-26T06:46:09;-1.60;99.90
26224;DHT22;14820;48.682;8.890;2023-02-26T06:48:35;-1.60;99.90
26224;DHT22;14820;48.682;8.890;2023-02-26T06:51:00;-1.60;99.90
26224;DHT22;14820;48.682;8.890;2023-02-26T06:53:26;-1.70;99.90
26224;DHT22;14820;48.682;8.890;2023-02-26T06:55:52;-1.60;99.90
26224;DHT22;14820;48.682;8.890;2023-02-26T06:58:19;-1.60;99.90
26224;DHT22;14820;48.682;8.890;2023-02-26T07:00:45;-1.60;99.90
26224;DHT22;14820;48.682;8.890;2023-02-26T07:03:12;-1.60;99.90
26224;DHT22;14820;48.682;8.890;2023-02-26T07:05:39;-1.60;99.90
26224;DHT22;14820;48.682;8.890;2023-02-26T07:08:05;-1.50;99.90
26224;DHT22;14820;48.682;8.890;2023-02-26T07:10:34;-1.60;99.90
26224;DHT22;14820;48.682;8.890;2023-02-26T07:13:01;-1.50;99.90
26224;DHT22;14820;48.682;8.890;2023-02-26T07:15:28;-1.50;99.90
26224;DHT22;14820;48.682;8.890;2023-02-26T07:18:00;-1.50;99.90
26224;DHT22;14820;48.682;8.890;2023-02-26T07:20:26;-1.50;99.90
26224;DHT22;14820;48.682;8.890;2023-02-26T07:22:52;-1.30;99.90
26224;DHT22;14820;48.682;8.890;2023-02-26T07:25:18;-1.30;99.90
26224;DHT22;14820;48.682;8.890;2023-02-26T07:27:44;-1.30;99.90
26224;DHT22;14820;48.682;8.890;2023-02-26T07:30:10;-1.20;99.90
26224;DHT22;14820;48.682;8.890;2023-02-26T07:32:36;-1.20;99.90
26224;DHT22;14820;48.682;8.890;2023-02-26T07:35:02;-1.20;99.90
26224;DHT22;14820;48.682;8.890;2023-02-26T07:37:28;-1.10;99.90
26224;DHT22;14820;48.682;8.890;2023-02-26T07:39:54;-1.10;99.90
26224;DHT22;14820;48.682;8.890;2023-02-26T07:42:20;-1.10;99.90
26224;DHT22;14820;48.682;8.890;2023-02-26T07:44:46;-1.10;99.90
26224;DHT22;14820;48.682;8.890;2023-02-26T07:47:11;-1.10;99.90
26224;DHT22;14820;48.682;8.890;2023-02-26T07:49:38;-1.10;99.90
26224;DHT22;14820;48.682;8.890;2023-02-26T07:52:04;-1.20;99.90
26224;DHT22;14820;48.682;8.890;2023-02-26T07:54:32;-1.10;99.90
26224;DHT22;14820;48.682;8.890;2023-02-26T07:56:57;-1.00;99.90
26224;DHT22;14820;48.682;8.890;2023-02-26T07:59:23;-1.00;99.90
26224;DHT22;14820;48.682;8.890;2023-02-26T08:01:49;-0.90;99.90
26224;DHT22;14820;48.682;8.890;2023-02-26T08:04:14;-0.90;99.90
26224;DHT22;14820;48.682;8.890;2023-02-26T08:06:40;-0.90;99.90
26224;DHT22;14820;48.682;8.890;2023-02-26T08:09:06;-0.80;99.90
26224;DHT22;14820;48.682;8.890;2023-02-26T08:11:31;-0.70;99.90
26224;DHT22;14820;48.682;8.890;2023-02-26T08:14:01;-0.70;99.90
26224;DHT22;14820;48.682;8.890;2023-02-26T08:16:27;-0.70;99.90
26224;DHT22;14820;48.682;8.890;2023-02-26T08:18:52;-0.60;99.90
26224;DHT22;14820;48.682;8.890;2023-02-26T08:21:18;-0.50;99.90
26224;DHT22;14820;48.682;8.890;2023-02-26T08:23:44;-0.60;99.90
26224;DHT22;14820;48.682;8.890;2023-02-26T08:26:10;-0.50;99.90
26224;DHT22;14820;48.682;8.890;2023-02-26T08:28:37;-0.50;99.90
26224;DHT22;14820;48.682;8.890;2023-02-26T08:31:04;-0.50;99.90
26224;DHT22;14820;48.682;8.890;2023-02-26T08:33:30;-0.50;99.90
26224;DHT22;14820;48.682;8.890;2023-02-26T08:35:56;-0.50;99.90
26224;DHT22;14820;48.682;8.890;2023-02-26T08:38:24;-0.60;99.90
26224;DHT22;14820;48.682;8.890;2023-02-26T08:40:50;-0.50;99.90
26224;DHT22;14820;48.682;8.890;2023-02-26T08:43:17;-0.50;99.90
26224;DHT22;14820;48.682;8.890;2023-02-26T08:45:43;-0.40;99.90
26224;DHT22;14820;48.682;8.890;2023-02-26T08:48:09;-0.40;99.90
26224;DHT22;14820;48.682;8.890;2023-02-26T08:50:39;-0.40;99.90
26224;DHT22;14820;48.682;8.890;2023-02-26T08:53:08;-0.30;99.90
26224;DHT22;14820;48.682;8.890;2023-02-26T08:55:34;-0.30;99.90
26224;DHT22;14820;48.682;8.890;2023-02-26T08:58:03;-0.30;99.90
26224;DHT22;14820;48.682;8.890;2023-02-26T09:00:30;-0.30;99.90
26224;DHT22;14820;48.682;8.890;2023-02-26T09:02:56;-0.40;99.90
26224;DHT22;14820;48.682;8.890;2023-02-26T09:05:22;-0.40;99.90
26224;DHT22;14820;48.682;8.890;2023-02-26T09:07:48;-0.30;99.90
26224;DHT22;14820;48.682;8.890;2023-02-26T09:10:18;-0.30;99.90
26224;DHT22;14820;48.682;8.890;2023-02-26T09:12:44;-0.30;99.90
26224;DHT22;14820;48.682;8.890;2023-02-26T09:15:11;-0.40;99.90
26224;DHT22;14820;48.682;8.890;2023-02-26T09:17:38;-0.50;99.90
26224;DHT22;14820;48.682;8.890;2023-02-26T09:20:07;-0.50;99.90
26224;DHT22;14820;48.682;8.890;2023-02-26T09:22:35;-0.50;99.90
26224;DHT22;14820;48.682;8.890;2023-02-26T09:25:01;-0.50;99.90
26224;DHT22;14820;48.682;8.890;2023-02-26T09:27:31;-0.50;99.90
26224;DHT22;14820;48.682;8.890;2023-02-26T09:29:56;-0.50;99.90
26224;DHT22;14820;48.682;8.890;2023-02-26T09:32:22;-0.50;99.90
26224;DHT22;14820;48.682;8.890;2023-02-26T09:34:48;-0.50;99.90
26224;DHT22;14820;48.682;8.890;2023-02-26T09:37:13;-0.50;99.90
26224;DHT22;14820;48.682;8.890;2023-02-26T09:39:39;-0.50;99.90
26224;DHT22;14820;48.682;8.890;2023-02-26T09:42:59;-0.60;99.90
26224;DHT22;14820;48.682;8.890;2023-02-26T09:45:26;-0.50;99.90
26224;DHT22;14820;48.682;8.890;2023-02-26T09:47:55;-0.50;99.90
26224;DHT22;14820;48.682;8.890;2023-02-26T09:50:51;-0.50;99.90
26224;DHT22;14820;48.682;8.890;2023-02-26T09:53:37;-0.50;99.90
26224;DHT22;14820;48.682;8.890;2023-02-26T09:56:09;-0.50;99.90
26224;DHT22;14820;48.682;8.890;2023-02-26T09:58:45;-0.40;99.90
26224;DHT22;14820;48.682;8.890;2023-02-26T10:01:26;-0.40;99.90
26224;DHT22;14820;48.682;8.890;2023-02-26T10:07:06;-0.40;99.90
26224;DHT22;14820;48.682;8.890;2023-02-26T10:12:29;-0.40;99.90
26224;DHT22;14820;48.682;8.890;2023-02-26T10:15:23;-0.40;99.90
26224;DHT22;14820;48.682;8.890;2023-02-26T10:21:34;-0.40;99.90
26224;DHT22;14820;48.682;8.890;2023-02-26T10:23:52;-0.40;99.90
26224;DHT22;14820;48.682;8.890;2023-02-26T10:26:27;-0.50;99.90
26224;DHT22;14820;48.682;8.890;2023-02-26T10:37:08;-0.40;99.90
26224;DHT22;14820;48.682;8.890;2023-02-26T10:39:51;-0.30;99.90
26224;DHT22;14820;48.682;8.890;2023-02-26T10:42:55;-0.30;99.90
26224;DHT22;14820;48.682;8.890;2023-02-26T10:48:10;-0.30;99.90
26224;DHT22;14820;48.682;8.890;2023-02-26T10:50:49;-0.30;99.90
26224;DHT22;14820;48.682;8.890;2023-02-26T10:53:15;-0.30;99.90
26224;DHT22;14820;48.682;8.890;2023-02-26T10:58:17;-0.30;99.90
26224;DHT22;14820;48.682;8.890;2023-02-26T11:00:46;-0.30;99.90
26224;DHT22;14820;48.682;8.890;2023-02-26T11:03:17;-0.30;99.90
26224;DHT22;14820;48.682;8.890;2023-02-26T11:05:43;-0.20;99.90
26224;DHT22;14820;48.682;8.890;2023-02-26T11:10:44;-0.20;99.90
26224;DHT22;14820;48.682;8.890;2023-02-26T11:13:11;-0.20;99.90
26224;DHT22;14820;48.682;8.890;2023-02-26T11:15:37;-0.30;99.90
26224;DHT22;14820;48.682;8.890;2023-02-26T11:18:03;-0.30;99.90
26224;DHT22;14820;48.682;8.890;2023-02-26T11:20:36;-0.20;99.90
26224;DHT22;14820;48.682;8.890;2023-02-26T11:25:43;-0.10;99.90
26224;DHT22;14820;48.682;8.890;2023-02-26T11:28:42;-0.10;99.90
26224;DHT22;14820;48.682;8.890;2023-02-26T11:31:10;-0.10;99.90
26224;DHT22;14820;48.682;8.890;2023-02-26T11:33:39;-0.10;99.90
26224;DHT22;14820;48.682;8.890;2023-02-26T11:36:09;-0.10;99.90
26224;DHT22;14820;48.682;8.890;2023-02-26T11:38:36;0.00;99.90
26224;DHT22;14820;48.682;8.890;2023-02-26T11:41:02;0.00;99.90
26224;DHT22;14820;48.682;8.890;2023-02-26T11:43:39;0.00;99.90
26224;DHT22;14820;48.682;8.890;2023-02-26T11:46:07;0.10;99.90
26224;DHT22;14820;48.682;8.890;2023-02-26T11:48:41;0.10;99.90
26224;DHT22;14820;48.682;8.890;2023-02-26T11:51:12;0.10;99.90
26224;DHT22;14820;48.682;8.890;2023-02-26T11:53:58;0.10;99.90
26224;DHT22;14820;48.682;8.890;2023-02-26T11:59:06;0.20;99.90
26224;DHT22;14820;48.682;8.890;2023-02-26T12:01:35;0.20;99.90
26224;DHT22;14820;48.682;8.890;2023-02-26T12:04:02;0.20;99.90
26224;DHT22;14820;48.682;8.890;2023-02-26T12:06:29;0.20;99.90
26224;DHT22;14820;48.682;8.890;2023-02-26T12:08:55;0.20;99.90
26224;DHT22;14820;48.682;8.890;2023-02-26T12:14:46;0.20;99.90
26224;DHT22;14820;48.682;8.890;2023-02-26T12:36:14;0.30;99.90
26224;DHT22;14820;48.682;8.890;2023-02-26T12:41:38;0.20;99.90
26224;DHT22;14820;48.682;8.890;2023-02-26T12:44:35;0.20;99.90
26224;DHT22;14820;48.682;8.890;2023-02-26T12:55:22;0.30;99.90
26224;DHT22;14820;48.682;8.890;2023-02-26T13:08:45;0.40;99.90
26224;DHT22;14820;48.682;8.890;2023-02-26T13:16:57;0.50;99.90
26224;DHT22;14820;48.682;8.890;2023-02-26T13:19:36;0.50;99.90
26224;DHT22;14820;48.682;8.890;2023-02-26T13:22:20;0.60;99.90
26224;DHT22;14820;48.682;8.890;2023-02-26T13:25:00;0.70;99.90
26224;DHT22;14820;48.682;8.890;2023-02-26T13:27:36;0.70;99.90
26224;DHT22;14820;48.682;8.890;2023-02-26T13:32:38;0.80;99.90
26224;DHT22;14820;48.682;8.890;2023-02-26T13:35:24;0.80;99.90
26224;DHT22;14820;48.682;8.890;2023-02-26T13:37:53;0.80;99.90
26224;DHT22;14820;48.682;8.890;2023-02-26T13:40:38;0.90;99.90
26224;DHT22;14820;48.682;8.890;2023-02-26T13:51:43;0.80;99.90
26224;DHT22;14820;48.682;8.890;2023-02-26T13:57:18;0.80;99.90
26224;DHT22;14820;48.682;8.890;2023-02-26T14:05:53;0.70;99.90
26224;DHT22;14820;48.682;8.890;2023-02-26T14:08:29;0.80;99.90
26224;DHT22;14820;48.682;8.890;2023-02-26T14:11:32;0.80;99.90
26224;DHT22;14820;48.682;8.890;2023-02-26T14:14:18;0.80;99.90
26224;DHT22;14820;48.682;8.890;2023-02-26T14:16:53;0.90;99.90
26224;DHT22;14820;48.682;8.890;2023-02-26T14:19:25;0.90;99.90
26224;DHT22;14820;48.682;8.890;2023-02-26T14:21:56;0.90;99.90
26224;DHT22;14820;48.682;8.890;2023-02-26T14:24:35;1.00;99.90
26224;DHT22;14820;48.682;8.890;2023-02-26T14:32:48;1.50;99.90
26224;DHT22;14820;48.682;8.890;2023-02-26T14:40:22;1.80;99.90
26224;DHT22;14820;48.682;8.890;2023-02-26T14:43:01;1.70;99.90
26224;DHT22;14820;48.682;8.890;2023-02-26T14:48:02;1.50;99.90
26224;DHT22;14820;48.682;8.890;2023-02-26T15:01:39;1.50;99.90
26224;DHT22;14820;48.682;8.890;2023-02-26T15:15:36;1.20;99.90
26224;DHT22;14820;48.682;8.890;2023-02-26T15:18:39;1.10;99.90
26224;DHT22;14820;48.682;8.890;2023-02-26T15:23:54;1.40;99.90
26224;DHT22;14820;48.682;8.890;2023-02-26T15:26:27;1.70;99.90
26224;DHT22;14820;48.682;8.890;2023-02-26T15:28:55;1.90;99.90
26224;DHT22;14820;48.682;8.890;2023-02-26T15:31:29;1.90;99.90
26224;DHT22;14820;48.682;8.890;2023-02-26T15:33:56;1.90;99.90
26224;DHT22;14820;48.682;8.890;2023-02-26T15:36:22;1.90;99.90
26224;DHT22;14820;48.682;8.890;2023-02-26T15:39:08;1.90;99.90
26224;DHT22;14820;48.682;8.890;2023-02-26T15:41:34;2.00;99.90
26224;DHT22;14820;48.682;8.890;2023-02-26T15:44:15;2.00;99.90
26224;DHT22;14820;48.682;8.890;2023-02-26T15:46:44;1.80;99.90
26224;DHT22;14820;48.682;8.890;2023-02-26T15:49:37;1.70;99.90
26224;DHT22;14820;48.682;8.890;2023-02-26T15:52:05;1.60;99.90
26224;DHT22;14820;48.682;8.890;2023-02-26T15:54:45;1.50;99.90
26224;DHT22;14820;48.682;8.890;2023-02-26T15:57:13;1.50;99.90
26224;DHT22;14820;48.682;8.890;2023-02-26T15:59:45;1.30;99.90
26224;DHT22;14820;48.682;8.890;2023-02-26T16:02:17;1.30;99.90
26224;DHT22;14820;48.682;8.890;2023-02-26T16:04:44;1.20;99.90
26224;DHT22;14820;48.682;8.890;2023-02-26T16:07:11;1.20;99.90
26224;DHT22;14820;48.682;8.890;2023-02-26T16:09:45;1.10;99.90
26224;DHT22;14820;48.682;8.890;2023-02-26T16:12:33;1.10;99.90
26224;DHT22;14820;48.682;8.890;2023-02-26T16:15:02;1.10;99.90
26224;DHT22;14820;48.682;8.890;2023-02-26T16:17:39;1.20;99.90
26224;DHT22;14820;48.682;8.890;2023-02-26T16:20:17;1.30;99.90
26224;DHT22;14820;48.682;8.890;2023-02-26T16:23:03;1.30;99.90
26224;DHT22;14820;48.682;8.890;2023-02-26T16:25:45;1.30;99.90
26224;DHT22;14820;48.682;8.890;2023-02-26T16:28:27;1.30;99.90
26224;DHT22;14820;48.682;8.890;2023-02-26T16:30:56;1.20;99.90
26224;DHT22;14820;48.682;8.890;2023-02-26T16:33:24;1.20;99.90
26224;DHT22;14820;48.682;8.890;2023-02-26T16:36:28;1.10;99.90
26224;DHT22;14820;48.682;8.890;2023-02-26T16:39:00;1.10;99.90
26224;DHT22;14820;48.682;8.890;2023-02-26T16:41:33;1.00;99.90
26224;DHT22;14820;48.682;8.890;2023-02-26T16:44:03;1.00;99.90
26224;DHT22;14820;48.682;8.890;2023-02-26T16:51:37;1.00;99.90
26224;DHT22;14820;48.682;8.890;2023-02-26T16:54:19;0.90;99.90
26224;DHT22;14820;48.682;8.890;2023-02-26T16:56:56;0.90;99.90
26224;DHT22;14820;48.682;8.890;2023-02-26T16:59:28;0.90;99.90
26224;DHT22;14820;48.682;8.890;2023-02-26T17:02:02;0.90;99.90
26224;DHT22;14820;48.682;8.890;2023-02-26T17:04:30;0.80;99.90
26224;DHT22;14820;48.682;8.890;2023-02-26T17:06:57;0.90;99.90
26224;DHT22;14820;48.682;8.890;2023-02-26T17:09:39;0.80;99.90
26224;DHT22;14820;48.682;8.890;2023-02-26T17:12:22;0.80;99.90
26224;DHT22;14820;48.682;8.890;2023-02-26T17:14:56;0.80;99.90
26224;DHT22;14820;48.682;8.890;2023-02-26T17:17:23;0.80;99.90
26224;DHT22;14820;48.682;8.890;2023-02-26T17:19:49;0.80;99.90
26224;DHT22;14820;48.682;8.890;2023-02-26T17:22:17;0.80;99.90
26224;DHT22;14820;48.682;8.890;2023-02-26T17:24:45;0.70;99.90
26224;DHT22;14820;48.682;8.890;2023-02-26T17:27:21;0.80;99.90
26224;DHT22;14820;48.682;8.890;2023-02-26T17:29:49;0.70;99.90
26224;DHT22;14820;48.682;8.890;2023-02-26T17:32:21;0.80;99.90
26224;DHT22;14820;48.682;8.890;2023-02-26T17:34:47;0.70;99.90
26224;DHT22;14820;48.682;8.890;2023-02-26T17:37:14;0.70;99.90
26224;DHT22;14820;48.682;8.890;2023-02-26T17:39:40;0.70;99.90
26224;DHT22;14820;48.682;8.890;2023-02-26T17:42:16;0.60;99.90
26224;DHT22;14820;48.682;8.890;2023-02-26T17:44:43;0.70;99.90
26224;DHT22;14820;48.682;8.890;2023-02-26T17:47:15;0.70;99.90
26224;DHT22;14820;48.682;8.890;2023-02-26T17:49:42;0.70;99.90
26224;DHT22;14820;48.682;8.890;2023-02-26T17:52:07;0.60;99.90
26224;DHT22;14820;48.682;8.890;2023-02-26T17:54:33;0.60;99.90
26224;DHT22;14820;48.682;8.890;2023-02-26T17:56:59;0.60;99.90
26224;DHT22;14820;48.682;8.890;2023-02-26T17:59:25;0.60;99.90
26224;DHT22;14820;48.682;8.890;2023-02-26T18:01:51;0.50;99.90
26224;DHT22;14820;48.682;8.890;2023-02-26T18:04:17;0.50;99.90
26224;DHT22;14820;48.682;8.890;2023-02-26T18:06:44;0.50;99.90
26224;DHT22;14820;48.682;8.890;2023-02-26T18:09:11;0.50;99.90
26224;DHT22;14820;48.682;8.890;2023-02-26T18:11:37;0.40;99.90
26224;DHT22;14820;48.682;8.890;2023-02-26T18:14:03;0.50;99.90
26224;DHT22;14820;48.682;8.890;2023-02-26T18:16:32;0.40;99.90
26224;DHT22;14820;48.682;8.890;2023-02-26T18:18:59;0.30;99.90
26224;DHT22;14820;48.682;8.890;2023-02-26T18:21:25;0.30;99.90
26224;DHT22;14820;48.682;8.890;2023-02-26T18:23:51;0.30;99.90
26224;DHT22;14820;48.682;8.890;2023-02-26T18:26:18;0.30;99.90
26224;DHT22;14820;48.682;8.890;2023-02-26T18:28:48;0.30;99.90
26224;DHT22;14820;48.682;8.890;2023-02-26T18:31:14;0.30;99.90
26224;DHT22;14820;48.682;8.890;2023-02-26T18:33:40;0.30;99.90
26224;DHT22;14820;48.682;8.890;2023-02-26T18:36:18;0.30;99.90
26224;DHT22;14820;48.682;8.890;2023-02-26T18:38:45;0.30;99.90
26224;DHT22;14820;48.682;8.890;2023-02-26T18:41:10;0.20;99.90
26224;DHT22;14820;48.682;8.890;2023-02-26T18:43:36;0.20;99.90
26224;DHT22;14820;48.682;8.890;2023-02-26T18:46:02;0.10;99.90
26224;DHT22;14820;48.682;8.890;2023-02-26T18:48:27;0.10;99.90
26224;DHT22;14820;48.682;8.890;2023-02-26T18:50:53;0.10;99.90
26224;DHT22;14820;48.682;8.890;2023-02-26T18:53:20;0.10;99.90
26224;DHT22;14820;48.682;8.890;2023-02-26T18:55:51;0.00;99.90
26224;DHT22;14820;48.682;8.890;2023-02-26T18:58:18;0.00;99.90
26224;DHT22;14820;48.682;8.890;2023-02-26T19:00:45;0.00;99.90
26224;DHT22;14820;48.682;8.890;2023-02-26T19:03:11;0.00;99.90
26224;DHT22;14820;48.682;8.890;2023-02-26T19:05:37;0.00;99.90
26224;DHT22;14820;48.682;8.890;2023-02-26T19:08:04;0.00;99.90
26224;DHT22;14820;48.682;8.890;2023-02-26T19:10:30;0.00;99.90
26224;DHT22;14820;48.682;8.890;2023-02-26T19:12:57;0.00;99.90